Kennicott — WCY2920 — position and weather

sailwx.info

Track history (hours):
 
Tides and Currents Weather Stations Pressure Air Temp Water Temp Dewpoint Dewpoint Depression Visibility Wind Speed Wind Dir Waves Ship Positions

Kennicott

Owner: ALASKA, STATE OF, Anchorage, AK. More information available from US FCC via Universal Licensing System and Coast Guard Vessel Documentation Center.

Last reported at 2018-May-27 17:30 UTC. Time now 2018-May-27 17:33 UTC.
Position N 51°06' W 127°44'.

Type: Passenger vessel. MMSI: 368250000.

Date/timePositionNaut miles runAvg speedWind from/ knotsBaromVisibWave heightAir tempDewpointWater temp
2018-May-27 17:30N 51°06' W 127°44'816.0
2018-May-27 17:01N 51°00' W 127°36'815.9
2018-May-27 16:30N 50°55' W 127°26'816.5
2018-May-27 16:01N 50°51' W 127°15'816.9
2018-May-27 15:30N 50°46' W 127°03'1016.8
2018-May-27 14:54N 50°40' W 126°50'817.9
2018-May-27 14:28N 50°35' W 126°42'816.5
2018-May-27 13:58N 50°30' W 126°31'918.1
2018-May-27 13:28N 50°29' W 126°17'2018.6
2018-May-27 12:24N 50°23' W 125°48'818.7
2018-May-27 11:59N 50°22' W 125°36'816.5
2018-May-27 11:31N 50°18' W 125°25'816.8
2018-May-27 11:00N 50°10' W 125°22'714.1
2018-May-27 10:30N 50°04' W 125°15'612.9
2018-May-27 10:00N 49°59' W 125°11'816.4
2018-May-27 09:30N 49°53' W 125°01'917.0
2018-May-27 09:00N 49°47' W 124°52'816.8
2018-May-27 08:30N 49°41' W 124°43'816.7
2018-May-27 08:01N 49°35' W 124°34'816.3
2018-May-27 07:30N 49°29' W 124°25'816.0
2018-May-27 07:00N 49°25' W 124°15'816.3
2018-May-27 06:30N 49°23' W 124°02'816.6
2018-May-27 06:00N 49°21' W 123°50'916.3
2018-May-27 05:28N 49°16' W 123°39'816.2
2018-May-27 04:59N 49°11' W 123°31'816.4
2018-May-27 04:28N 49°05' W 123°22'816.4
2018-May-27 04:01N 48°60' W 123°13'816.4
2018-May-27 03:30N 48°54' W 123°04'916.6
2018-May-27 02:58N 48°48' W 122°53'816.1
2018-May-27 02:28N 48°43' W 122°44'715.9
2018-May-27 02:01N 48°38' W 122°36'612.2
2018-May-27 01:29N 48°43' W 122°31'0 0.1
2018-May-27 01:00N 48°43' W 122°31'0 0.0
2018-May-27 00:30N 48°43' W 122°31'0 0.0
2018-May-27 00:00N 48°43' W 122°31'0 0.0
2018-May-26 23:27N 48°43' W 122°31'0 0.0
2018-May-26 22:54N 48°43' W 122°31'0 0.0
2018-May-26 22:30N 48°43' W 122°31'0 0.0
2018-May-26 21:51N 48°43' W 122°31'0 0.0
2018-May-26 21:21N 48°43' W 122°31'0 0.0
2018-May-26 20:54N 48°43' W 122°31'0 0.0
2018-May-26 20:30N 48°43' W 122°31'0 0.0
2018-May-26 19:39N 48°43' W 122°31'0 0.0
2018-May-26 19:27N 48°43' W 122°31'0 0.0
2018-May-26 18:57N 48°43' W 122°31'0 0.0
2018-May-26 18:27N 48°43' W 122°31'0 0.0
2018-May-26 17:54N 48°43' W 122°31'0 0.0
2018-May-26 17:30N 48°43' W 122°31'0 0.0
2018-May-26 16:54N 48°43' W 122°31'0 0.0
2018-May-26 16:30N 48°43' W 122°31'0 0.0
2018-May-26 16:00N 48°43' W 122°31'0 0.0
2018-May-26 15:30N 48°43' W 122°31'0 0.1
2018-May-26 14:59N 48°43' W 122°31'1 2.8
2018-May-26 14:30N 48°43' W 122°33'611.6
2018-May-26 14:00N 48°38' W 122°36'611.9
2018-May-26 13:30N 48°41' W 122°44'713.3
2018-May-26 13:00N 48°46' W 122°50'713.5
2018-May-26 12:30N 48°49' W 122°59'713.9
2018-May-26 12:00N 48°54' W 123°08'713.8
2018-May-26 11:30N 48°58' W 123°15'713.6
2018-May-26 11:00N 49°03' W 123°23'712.9
2018-May-26 10:29N 49°08' W 123°30'612.6
2018-May-26 09:59N 49°13' W 123°36'713.2
2018-May-26 09:29N 49°17' W 123°43'712.5
2018-May-26 08:57N 49°22' W 123°51'613.1
2018-May-26 08:31N 49°23' W 123°60'713.3
2018-May-26 08:01N 49°24' W 124°10'713.1
2018-May-26 07:30N 49°26' W 124°20'713.5
2018-May-26 07:00N 49°31' W 124°27'714.0
2018-May-26 06:30N 49°36' W 124°34'1413.8
2018-May-26 05:30N 49°45' W 124°50'713.6
2018-May-26 05:00N 49°50' W 124°57'713.7
2018-May-26 04:30N 49°55' W 125°05'714.3
2018-May-26 04:00N 49°60' W 125°13'713.3
2018-May-26 03:30N 50°06' W 125°18'611.5
2018-May-26 03:00N 50°11' W 125°22'814.9
2018-May-26 02:29N 50°18' W 125°25'812.7
2018-May-26 01:52N 50°22' W 125°36'614.9
2018-May-26 01:29N 50°22' W 125°44'2713.9
2018-May-25 23:33N 50°30' W 126°25'414.5
2018-May-25 23:15N 50°30' W 126°32'514.2
2018-May-25 22:55N 50°32' W 126°39'713.2
2018-May-25 22:22N 50°37' W 126°46'615.7
2018-May-25 21:59N 50°41' W 126°53'815.3
2018-May-25 21:30N 50°46' W 127°02'715.1
2018-May-25 21:00N 50°50' W 127°12'815.9
2018-May-25 20:30N 50°54' W 127°23'815.5
2018-May-25 20:00N 50°59' W 127°33'815.6
2018-May-25 19:30N 51°04' W 127°42'816.4
2018-May-25 19:00N 51°09' W 127°52'917.0
2018-May-25 18:30N 51°18' W 127°55'816.1
2018-May-25 18:01N 51°24' W 128°02'816.1
2018-May-25 17:30N 51°30' W 128°12'816.3
2018-May-25 17:00N 51°37' W 128°18'816.6
2018-May-25 16:30N 51°44' W 128°25'816.4
2018-May-25 16:00N 51°51' W 128°32'816.3
2018-May-25 15:30N 51°58' W 128°37'816.2
2018-May-25 15:01N 52°06' W 128°42'816.2
2018-May-25 14:31N 52°14' W 128°46'816.2
2018-May-25 14:00N 52°21' W 128°49'816.1
2018-May-25 13:30N 52°29' W 128°52'816.5
2018-May-25 13:00N 52°37' W 128°55'3115.4
2018-May-25 11:00N 53°00' W 129°30'3019.4 150 / 241016.810.8 8.9
2018-May-25 09:28N 53°25' W 129°55'917.7
2018-May-25 08:59N 53°31' W 130°06'917.8
2018-May-25 08:30N 53°36' W 130°18'917.2
2018-May-25 08:00N 53°41' W 130°30'816.7
2018-May-25 07:30N 53°47' W 130°40'816.4
2018-May-25 07:00N 53°52' W 130°50'816.2
2018-May-25 06:30N 53°58' W 130°59'816.2
2018-May-25 06:00N 54°06' W 131°02'816.5
2018-May-25 05:30N 54°14' W 131°03'917.3
2018-May-25 05:00N 54°23' W 131°06'816.7
2018-May-25 04:30N 54°30' W 131°14'816.3
2018-May-25 04:00N 54°36' W 131°23'252 9.1
2018-May-24 00:19N 58°13' W 135°18'517.0
2018-May-24 00:00N 58°14' W 135°27'917.4
2018-May-23 23:30N 58°17' W 135°43'917.6
2018-May-23 23:00N 58°19' W 135°59'816.1
2018-May-23 22:30N 58°18' W 136°14'8515.4
2018-May-23 17:00N 58°54' W 138°42'2613.7 120 / 11 14.4
2018-May-23 15:06N 59°11' W 139°20'15111.5
2018-May-23 02:00N 59°36' W 144°12'4314.4 090 / 24
2018-May-22 23:00N 59°54' W 145°30'104 8.0 050 / 241008.0 5.4 9.4
2018-May-22 10:00N 60°42' W 148°36'82 7.4 090 / 91005.0 2.2 7.2
2018-May-21 23:00N 59°24' W 149°24'7815.6 030 / 26995.010.8 8.9
2018-May-21 18:00N 58°24' W 151°00'73 3.3 050 / 37987.5 5.4 8.3
2018-May-20 20:00N 59°36' W 151°24'   1002.5 5.4 8.9
Track history (hours):
 
Tides and Currents Weather Stations Pressure Air Temp Water Temp Dewpoint Dewpoint Depression Visibility Wind Speed Wind Dir Waves Ship Positions

Kennicott

Owner: ALASKA, STATE OF, Anchorage, AK. More information available from US FCC via Universal Licensing System and Coast Guard Vessel Documentation Center.

Last reported at 2018-May-27 17:30 UTC. Time now 2018-May-27 17:33 UTC.
Position N 51°06' W 127°44'.

Type: Passenger vessel. MMSI: 368250000.

Date/timePositionNaut miles runAvg speedWind from/ knotsBaromVisibWave heightAir tempDewpointWater temp
2018-May-27 17:30N 51°06' W 127°44'816.0
2018-May-27 17:01N 51°00' W 127°36'815.9
2018-May-27 16:30N 50°55' W 127°26'816.5
2018-May-27 16:01N 50°51' W 127°15'816.9
2018-May-27 15:30N 50°46' W 127°03'1016.8
2018-May-27 14:54N 50°40' W 126°50'817.9
2018-May-27 14:28N 50°35' W 126°42'816.5
2018-May-27 13:58N 50°30' W 126°31'918.1
2018-May-27 13:28N 50°29' W 126°17'2018.6
2018-May-27 12:24N 50°23' W 125°48'818.7
2018-May-27 11:59N 50°22' W 125°36'816.5
2018-May-27 11:31N 50°18' W 125°25'816.8
2018-May-27 11:00N 50°10' W 125°22'714.1
2018-May-27 10:30N 50°04' W 125°15'612.9
2018-May-27 10:00N 49°59' W 125°11'816.4
2018-May-27 09:30N 49°53' W 125°01'917.0
2018-May-27 09:00N 49°47' W 124°52'816.8
2018-May-27 08:30N 49°41' W 124°43'816.7
2018-May-27 08:01N 49°35' W 124°34'816.3
2018-May-27 07:30N 49°29' W 124°25'816.0
2018-May-27 07:00N 49°25' W 124°15'816.3
2018-May-27 06:30N 49°23' W 124°02'816.6
2018-May-27 06:00N 49°21' W 123°50'916.3
2018-May-27 05:28N 49°16' W 123°39'816.2
2018-May-27 04:59N 49°11' W 123°31'816.4
2018-May-27 04:28N 49°05' W 123°22'816.4
2018-May-27 04:01N 48°60' W 123°13'816.4
2018-May-27 03:30N 48°54' W 123°04'916.6
2018-May-27 02:58N 48°48' W 122°53'816.1
2018-May-27 02:28N 48°43' W 122°44'715.9
2018-May-27 02:01N 48°38' W 122°36'612.2
2018-May-27 01:29N 48°43' W 122°31'0 0.1
2018-May-27 01:00N 48°43' W 122°31'0 0.0
2018-May-27 00:30N 48°43' W 122°31'0 0.0
2018-May-27 00:00N 48°43' W 122°31'0 0.0
2018-May-26 23:27N 48°43' W 122°31'0 0.0
2018-May-26 22:54N 48°43' W 122°31'0 0.0
2018-May-26 22:30N 48°43' W 122°31'0 0.0
2018-May-26 21:51N 48°43' W 122°31'0 0.0
2018-May-26 21:21N 48°43' W 122°31'0 0.0
2018-May-26 20:54N 48°43' W 122°31'0 0.0
2018-May-26 20:30N 48°43' W 122°31'0 0.0
2018-May-26 19:39N 48°43' W 122°31'0 0.0
2018-May-26 19:27N 48°43' W 122°31'0 0.0
2018-May-26 18:57N 48°43' W 122°31'0 0.0
2018-May-26 18:27N 48°43' W 122°31'0 0.0
2018-May-26 17:54N 48°43' W 122°31'0 0.0
2018-May-26 17:30N 48°43' W 122°31'0 0.0
2018-May-26 16:54N 48°43' W 122°31'0 0.0
2018-May-26 16:30N 48°43' W 122°31'0 0.0
2018-May-26 16:00N 48°43' W 122°31'0 0.0
2018-May-26 15:30N 48°43' W 122°31'0 0.1
2018-May-26 14:59N 48°43' W 122°31'1 2.8
2018-May-26 14:30N 48°43' W 122°33'611.6
2018-May-26 14:00N 48°38' W 122°36'611.9
2018-May-26 13:30N 48°41' W 122°44'713.3
2018-May-26 13:00N 48°46' W 122°50'713.5
2018-May-26 12:30N 48°49' W 122°59'713.9
2018-May-26 12:00N 48°54' W 123°08'713.8
2018-May-26 11:30N 48°58' W 123°15'713.6
2018-May-26 11:00N 49°03' W 123°23'712.9
2018-May-26 10:29N 49°08' W 123°30'612.6
2018-May-26 09:59N 49°13' W 123°36'713.2
2018-May-26 09:29N 49°17' W 123°43'712.5
2018-May-26 08:57N 49°22' W 123°51'613.1
2018-May-26 08:31N 49°23' W 123°60'713.3
2018-May-26 08:01N 49°24' W 124°10'713.1
2018-May-26 07:30N 49°26' W 124°20'713.5
2018-May-26 07:00N 49°31' W 124°27'714.0
2018-May-26 06:30N 49°36' W 124°34'1413.8
2018-May-26 05:30N 49°45' W 124°50'713.6
2018-May-26 05:00N 49°50' W 124°57'713.7
2018-May-26 04:30N 49°55' W 125°05'714.3
2018-May-26 04:00N 49°60' W 125°13'713.3
2018-May-26 03:30N 50°06' W 125°18'611.5
2018-May-26 03:00N 50°11' W 125°22'814.9
2018-May-26 02:29N 50°18' W 125°25'812.7
2018-May-26 01:52N 50°22' W 125°36'614.9
2018-May-26 01:29N 50°22' W 125°44'2713.9
2018-May-25 23:33N 50°30' W 126°25'414.5
2018-May-25 23:15N 50°30' W 126°32'514.2
2018-May-25 22:55N 50°32' W 126°39'713.2
2018-May-25 22:22N 50°37' W 126°46'615.7
2018-May-25 21:59N 50°41' W 126°53'815.3
2018-May-25 21:30N 50°46' W 127°02'715.1
2018-May-25 21:00N 50°50' W 127°12'815.9
2018-May-25 20:30N 50°54' W 127°23'815.5
2018-May-25 20:00N 50°59' W 127°33'815.6
2018-May-25 19:30N 51°04' W 127°42'816.4
2018-May-25 19:00N 51°09' W 127°52'917.0
2018-May-25 18:30N 51°18' W 127°55'816.1
2018-May-25 18:01N 51°24' W 128°02'816.1
2018-May-25 17:30N 51°30' W 128°12'816.3
2018-May-25 17:00N 51°37' W 128°18'816.6
2018-May-25 16:30N 51°44' W 128°25'816.4
2018-May-25 16:00N 51°51' W 128°32'816.3
2018-May-25 15:30N 51°58' W 128°37'816.2
2018-May-25 15:01N 52°06' W 128°42'816.2
2018-May-25 14:31N 52°14' W 128°46'816.2
2018-May-25 14:00N 52°21' W 128°49'816.1
2018-May-25 13:30N 52°29' W 128°52'816.5
2018-May-25 13:00N 52°37' W 128°55'3115.4
2018-May-25 11:00N 53°00' W 129°30'3019.4 150 / 241016.810.8 8.9
2018-May-25 09:28N 53°25' W 129°55'917.7
2018-May-25 08:59N 53°31' W 130°06'917.8
2018-May-25 08:30N 53°36' W 130°18'917.2
2018-May-25 08:00N 53°41' W 130°30'816.7
2018-May-25 07:30N 53°47' W 130°40'816.4
2018-May-25 07:00N 53°52' W 130°50'816.2
2018-May-25 06:30N 53°58' W 130°59'816.2
2018-May-25 06:00N 54°06' W 131°02'816.5
2018-May-25 05:30N 54°14' W 131°03'917.3
2018-May-25 05:00N 54°23' W 131°06'816.7
2018-May-25 04:30N 54°30' W 131°14'816.3
2018-May-25 04:00N 54°36' W 131°23'252 9.1
2018-May-24 00:19N 58°13' W 135°18'517.0
2018-May-24 00:00N 58°14' W 135°27'917.4
2018-May-23 23:30N 58°17' W 135°43'917.6
2018-May-23 23:00N 58°19' W 135°59'816.1
2018-May-23 22:30N 58°18' W 136°14'8515.4
2018-May-23 17:00N 58°54' W 138°42'2613.7 120 / 11 14.4
2018-May-23 15:06N 59°11' W 139°20'15111.5
2018-May-23 02:00N 59°36' W 144°12'4314.4 090 / 24
2018-May-22 23:00N 59°54' W 145°30'104 8.0 050 / 241008.0 5.4 9.4
2018-May-22 10:00N 60°42' W 148°36'82 7.4 090 / 91005.0 2.2 7.2
2018-May-21 23:00N 59°24' W 149°24'7815.6 030 / 26995.010.8 8.9
2018-May-21 18:00N 58°24' W 151°00'73 3.3 050 / 37987.5 5.4 8.3
2018-May-20 20:00N 59°36' W 151°24'   1002.5 5.4 8.9

Dump ship's entire track history